sensor_id;sensor_type;location;lat;lon;timestamp;P1;durP1;ratioP1;P2;durP2;ratioP2
8353;SDS011;4656;48.090;11.498;2023-02-22T00:00:10;3.38;;;2.88;;
8353;SDS011;4656;48.090;11.498;2023-02-22T00:02:23;4.47;;;3.10;;
8353;SDS011;4656;48.090;11.498;2023-02-22T00:04:28;4.25;;;2.75;;
8353;SDS011;4656;48.090;11.498;2023-02-22T00:06:30;3.08;;;2.30;;
8353;SDS011;4656;48.090;11.498;2023-02-22T00:08:34;4.47;;;2.28;;
8353;SDS011;4656;48.090;11.498;2023-02-22T00:10:37;3.40;;;2.70;;
8353;SDS011;4656;48.090;11.498;2023-02-22T00:12:39;2.70;;;2.38;;
8353;SDS011;4656;48.090;11.498;2023-02-22T00:14:42;3.90;;;2.63;;
8353;SDS011;4656;48.090;11.498;2023-02-22T00:16:44;4.00;;;2.60;;
8353;SDS011;4656;48.090;11.498;2023-02-22T00:18:48;4.07;;;3.00;;
8353;SDS011;4656;48.090;11.498;2023-02-22T00:20:50;4.75;;;3.10;;
8353;SDS011;4656;48.090;11.498;2023-02-22T00:22:53;4.13;;;2.90;;
8353;SDS011;4656;48.090;11.498;2023-02-22T00:24:55;5.10;;;2.80;;
8353;SDS011;4656;48.090;11.498;2023-02-22T00:26:57;2.85;;;2.40;;
8353;SDS011;4656;48.090;11.498;2023-02-22T00:28:59;4.40;;;2.40;;
8353;SDS011;4656;48.090;11.498;2023-02-22T00:31:02;3.42;;;2.45;;
8353;SDS011;4656;48.090;11.498;2023-02-22T00:33:05;5.40;;;2.33;;
8353;SDS011;4656;48.090;11.498;2023-02-22T00:35:09;4.47;;;2.40;;
8353;SDS011;4656;48.090;11.498;2023-02-22T00:37:12;4.25;;;2.45;;
8353;SDS011;4656;48.090;11.498;2023-02-22T00:39:14;3.38;;;2.40;;
8353;SDS011;4656;48.090;11.498;2023-02-22T00:41:16;3.17;;;2.33;;
8353;SDS011;4656;48.090;11.498;2023-02-22T00:43:18;2.47;;;1.95;;
8353;SDS011;4656;48.090;11.498;2023-02-22T00:45:21;3.88;;;2.10;;
8353;SDS011;4656;48.090;11.498;2023-02-22T00:47:24;3.22;;;2.60;;
8353;SDS011;4656;48.090;11.498;2023-02-22T00:49:27;4.72;;;2.45;;
8353;SDS011;4656;48.090;11.498;2023-02-22T00:51:30;3.93;;;2.40;;
8353;SDS011;4656;48.090;11.498;2023-02-22T00:53:33;4.20;;;2.55;;
8353;SDS011;4656;48.090;11.498;2023-02-22T00:55:35;3.53;;;2.22;;
8353;SDS011;4656;48.090;11.498;2023-02-22T00:57:38;3.22;;;2.55;;
8353;SDS011;4656;48.090;11.498;2023-02-22T00:59:40;5.95;;;2.72;;
8353;SDS011;4656;48.090;11.498;2023-02-22T01:01:42;3.40;;;2.88;;
8353;SDS011;4656;48.090;11.498;2023-02-22T01:03:44;3.67;;;3.03;;
8353;SDS011;4656;48.090;11.498;2023-02-22T01:05:46;2.67;;;2.38;;
8353;SDS011;4656;48.090;11.498;2023-02-22T01:07:50;3.53;;;2.25;;
8353;SDS011;4656;48.090;11.498;2023-02-22T01:09:52;4.40;;;3.00;;
8353;SDS011;4656;48.090;11.498;2023-02-22T01:11:54;5.13;;;2.75;;
8353;SDS011;4656;48.090;11.498;2023-02-22T01:13:56;3.70;;;2.60;;
8353;SDS011;4656;48.090;11.498;2023-02-22T01:15:59;5.10;;;3.10;;
8353;SDS011;4656;48.090;11.498;2023-02-22T01:18:02;3.67;;;2.60;;
8353;SDS011;4656;48.090;11.498;2023-02-22T01:20:05;3.13;;;2.60;;
8353;SDS011;4656;48.090;11.498;2023-02-22T01:22:11;3.95;;;2.70;;
8353;SDS011;4656;48.090;11.498;2023-02-22T01:24:15;6.60;;;2.90;;
8353;SDS011;4656;48.090;11.498;2023-02-22T01:26:18;4.32;;;2.65;;
8353;SDS011;4656;48.090;11.498;2023-02-22T01:28:20;5.30;;;2.60;;
8353;SDS011;4656;48.090;11.498;2023-02-22T01:30:24;4.68;;;2.75;;
8353;SDS011;4656;48.090;11.498;2023-02-22T01:32:26;4.22;;;2.95;;
8353;SDS011;4656;48.090;11.498;2023-02-22T01:34:28;3.97;;;2.88;;
8353;SDS011;4656;48.090;11.498;2023-02-22T01:36:32;5.30;;;2.95;;
8353;SDS011;4656;48.090;11.498;2023-02-22T01:38:34;4.67;;;3.03;;
8353;SDS011;4656;48.090;11.498;2023-02-22T01:40:38;5.45;;;2.80;;
8353;SDS011;4656;48.090;11.498;2023-02-22T01:42:41;6.53;;;2.88;;
8353;SDS011;4656;48.090;11.498;2023-02-22T01:44:44;4.03;;;2.70;;
8353;SDS011;4656;48.090;11.498;2023-02-22T01:46:46;4.35;;;3.00;;
8353;SDS011;4656;48.090;11.498;2023-02-22T01:48:49;4.63;;;2.50;;
8353;SDS011;4656;48.090;11.498;2023-02-22T01:50:53;3.20;;;2.60;;
8353;SDS011;4656;48.090;11.498;2023-02-22T01:52:56;2.92;;;2.47;;
8353;SDS011;4656;48.090;11.498;2023-02-22T01:54:58;3.15;;;2.55;;
8353;SDS011;4656;48.090;11.498;2023-02-22T01:57:04;4.03;;;2.80;;
8353;SDS011;4656;48.090;11.498;2023-02-22T01:59:08;3.20;;;2.80;;
8353;SDS011;4656;48.090;11.498;2023-02-22T02:01:11;4.90;;;3.00;;
8353;SDS011;4656;48.090;11.498;2023-02-22T02:03:14;3.22;;;2.75;;
8353;SDS011;4656;48.090;11.498;2023-02-22T02:05:18;3.35;;;2.70;;
8353;SDS011;4656;48.090;11.498;2023-02-22T02:07:21;5.88;;;2.70;;
8353;SDS011;4656;48.090;11.498;2023-02-22T02:09:24;5.82;;;3.10;;
8353;SDS011;4656;48.090;11.498;2023-02-22T02:11:29;4.00;;;2.80;;
8353;SDS011;4656;48.090;11.498;2023-02-22T02:13:33;4.57;;;2.60;;
8353;SDS011;4656;48.090;11.498;2023-02-22T02:15:35;2.90;;;2.60;;
8353;SDS011;4656;48.090;11.498;2023-02-22T02:17:37;3.10;;;2.60;;
8353;SDS011;4656;48.090;11.498;2023-02-22T02:19:45;3.55;;;2.70;;
8353;SDS011;4656;48.090;11.498;2023-02-22T02:22:01;5.35;;;2.95;;
8353;SDS011;4656;48.090;11.498;2023-02-22T02:29:00;4.75;;;2.63;;
8353;SDS011;4656;48.090;11.498;2023-02-22T02:31:16;4.57;;;3.30;;
8353;SDS011;4656;48.090;11.498;2023-02-22T02:33:25;4.75;;;3.50;;
8353;SDS011;4656;48.090;11.498;2023-02-22T02:35:34;5.90;;;3.88;;
8353;SDS011;4656;48.090;11.498;2023-02-22T02:37:41;5.03;;;3.30;;
8353;SDS011;4656;48.090;11.498;2023-02-22T02:39:48;4.15;;;3.08;;
8353;SDS011;4656;48.090;11.498;2023-02-22T02:41:52;4.57;;;3.50;;
8353;SDS011;4656;48.090;11.498;2023-02-22T02:43:56;4.60;;;3.10;;
8353;SDS011;4656;48.090;11.498;2023-02-22T02:46:01;3.90;;;2.87;;
8353;SDS011;4656;48.090;11.498;2023-02-22T02:48:04;4.75;;;2.90;;
8353;SDS011;4656;48.090;11.498;2023-02-22T02:50:12;3.88;;;2.85;;
8353;SDS011;4656;48.090;11.498;2023-02-22T02:52:15;4.45;;;2.85;;
8353;SDS011;4656;48.090;11.498;2023-02-22T02:54:19;3.83;;;2.80;;
8353;SDS011;4656;48.090;11.498;2023-02-22T02:56:21;5.68;;;2.92;;
8353;SDS011;4656;48.090;11.498;2023-02-22T02:58:23;5.55;;;2.85;;
8353;SDS011;4656;48.090;11.498;2023-02-22T03:00:26;3.60;;;2.97;;
8353;SDS011;4656;48.090;11.498;2023-02-22T03:02:34;3.65;;;2.80;;
8353;SDS011;4656;48.090;11.498;2023-02-22T03:04:43;4.50;;;3.15;;
8353;SDS011;4656;48.090;11.498;2023-02-22T03:09:23;6.43;;;3.00;;
8353;SDS011;4656;48.090;11.498;2023-02-22T03:11:27;5.05;;;3.20;;
8353;SDS011;4656;48.090;11.498;2023-02-22T03:13:33;8.05;;;3.22;;
8353;SDS011;4656;48.090;11.498;2023-02-22T03:15:39;3.78;;;2.70;;
8353;SDS011;4656;48.090;11.498;2023-02-22T03:17:46;5.10;;;2.70;;
8353;SDS011;4656;48.090;11.498;2023-02-22T03:19:49;3.45;;;2.78;;
8353;SDS011;4656;48.090;11.498;2023-02-22T03:21:54;5.05;;;3.40;;
8353;SDS011;4656;48.090;11.498;2023-02-22T03:23:58;5.32;;;2.83;;
8353;SDS011;4656;48.090;11.498;2023-02-22T03:26:03;4.70;;;2.95;;
8353;SDS011;4656;48.090;11.498;2023-02-22T03:28:08;6.72;;;2.90;;
8353;SDS011;4656;48.090;11.498;2023-02-22T03:30:13;4.50;;;2.72;;
8353;SDS011;4656;48.090;11.498;2023-02-22T03:32:19;3.75;;;2.88;;
8353;SDS011;4656;48.090;11.498;2023-02-22T03:34:24;4.53;;;3.10;;
8353;SDS011;4656;48.090;11.498;2023-02-22T03:36:29;5.47;;;2.70;;
8353;SDS011;4656;48.090;11.498;2023-02-22T03:38:33;4.72;;;2.90;;
8353;SDS011;4656;48.090;11.498;2023-02-22T03:40:38;5.45;;;3.03;;
8353;SDS011;4656;48.090;11.498;2023-02-22T03:42:45;4.17;;;2.70;;
8353;SDS011;4656;48.090;11.498;2023-02-22T03:44:49;3.60;;;2.50;;
8353;SDS011;4656;48.090;11.498;2023-02-22T03:46:52;3.65;;;2.60;;
8353;SDS011;4656;48.090;11.498;2023-02-22T03:48:57;4.70;;;2.72;;
8353;SDS011;4656;48.090;11.498;2023-02-22T03:51:00;2.70;;;2.35;;
8353;SDS011;4656;48.090;11.498;2023-02-22T03:53:03;4.88;;;2.40;;
8353;SDS011;4656;48.090;11.498;2023-02-22T03:55:06;4.93;;;2.75;;
8353;SDS011;4656;48.090;11.498;2023-02-22T03:57:11;5.28;;;3.00;;
8353;SDS011;4656;48.090;11.498;2023-02-22T03:59:16;7.95;;;2.58;;
8353;SDS011;4656;48.090;11.498;2023-02-22T04:01:18;3.58;;;2.40;;
8353;SDS011;4656;48.090;11.498;2023-02-22T04:03:22;3.35;;;2.50;;
8353;SDS011;4656;48.090;11.498;2023-02-22T04:05:24;5.55;;;2.88;;
8353;SDS011;4656;48.090;11.498;2023-02-22T04:07:27;4.88;;;2.97;;
8353;SDS011;4656;48.090;11.498;2023-02-22T04:09:29;4.67;;;2.60;;
8353;SDS011;4656;48.090;11.498;2023-02-22T04:11:32;4.35;;;2.88;;
8353;SDS011;4656;48.090;11.498;2023-02-22T04:13:34;4.00;;;2.72;;
8353;SDS011;4656;48.090;11.498;2023-02-22T04:15:38;3.70;;;2.72;;
8353;SDS011;4656;48.090;11.498;2023-02-22T04:17:40;5.45;;;2.83;;
8353;SDS011;4656;48.090;11.498;2023-02-22T04:19:42;5.53;;;2.80;;
8353;SDS011;4656;48.090;11.498;2023-02-22T04:21:44;5.13;;;2.80;;
8353;SDS011;4656;48.090;11.498;2023-02-22T04:23:47;3.72;;;2.85;;
8353;SDS011;4656;48.090;11.498;2023-02-22T04:25:49;4.63;;;2.67;;
8353;SDS011;4656;48.090;11.498;2023-02-22T04:27:51;7.25;;;3.05;;
8353;SDS011;4656;48.090;11.498;2023-02-22T04:29:54;4.38;;;2.80;;
8353;SDS011;4656;48.090;11.498;2023-02-22T04:31:57;5.05;;;2.90;;
8353;SDS011;4656;48.090;11.498;2023-02-22T04:33:59;4.03;;;3.00;;
8353;SDS011;4656;48.090;11.498;2023-02-22T04:36:02;6.95;;;3.08;;
8353;SDS011;4656;48.090;11.498;2023-02-22T04:38:04;3.85;;;3.30;;
8353;SDS011;4656;48.090;11.498;2023-02-22T04:40:08;4.95;;;3.00;;
8353;SDS011;4656;48.090;11.498;2023-02-22T04:42:10;6.43;;;2.90;;
8353;SDS011;4656;48.090;11.498;2023-02-22T04:44:13;4.60;;;2.67;;
8353;SDS011;4656;48.090;11.498;2023-02-22T04:46:15;5.90;;;2.90;;
8353;SDS011;4656;48.090;11.498;2023-02-22T04:48:19;3.33;;;2.60;;
8353;SDS011;4656;48.090;11.498;2023-02-22T04:50:21;3.35;;;2.78;;
8353;SDS011;4656;48.090;11.498;2023-02-22T04:52:23;4.45;;;2.70;;
8353;SDS011;4656;48.090;11.498;2023-02-22T04:54:25;3.20;;;2.63;;
8353;SDS011;4656;48.090;11.498;2023-02-22T04:56:27;2.80;;;2.50;;
8353;SDS011;4656;48.090;11.498;2023-02-22T04:58:29;3.67;;;2.80;;
8353;SDS011;4656;48.090;11.498;2023-02-22T05:00:31;3.30;;;2.83;;
8353;SDS011;4656;48.090;11.498;2023-02-22T05:02:34;4.90;;;2.70;;
8353;SDS011;4656;48.090;11.498;2023-02-22T05:04:37;3.78;;;2.53;;
8353;SDS011;4656;48.090;11.498;2023-02-22T05:06:39;3.67;;;3.00;;
8353;SDS011;4656;48.090;11.498;2023-02-22T05:08:42;4.03;;;2.65;;
8353;SDS011;4656;48.090;11.498;2023-02-22T05:10:44;5.93;;;2.80;;
8353;SDS011;4656;48.090;11.498;2023-02-22T05:12:46;4.78;;;2.90;;
8353;SDS011;4656;48.090;11.498;2023-02-22T05:14:48;3.60;;;2.85;;
8353;SDS011;4656;48.090;11.498;2023-02-22T05:16:50;3.83;;;2.95;;
8353;SDS011;4656;48.090;11.498;2023-02-22T05:18:52;3.53;;;2.70;;
8353;SDS011;4656;48.090;11.498;2023-02-22T05:20:56;4.80;;;3.13;;
8353;SDS011;4656;48.090;11.498;2023-02-22T05:22:58;3.50;;;2.80;;
8353;SDS011;4656;48.090;11.498;2023-02-22T05:25:00;4.53;;;3.00;;
8353;SDS011;4656;48.090;11.498;2023-02-22T05:27:03;3.72;;;2.60;;
8353;SDS011;4656;48.090;11.498;2023-02-22T05:29:05;3.28;;;2.50;;
8353;SDS011;4656;48.090;11.498;2023-02-22T05:31:07;7.97;;;4.32;;
8353;SDS011;4656;48.090;11.498;2023-02-22T05:33:09;4.63;;;3.10;;
8353;SDS011;4656;48.090;11.498;2023-02-22T05:35:12;3.20;;;2.67;;
8353;SDS011;4656;48.090;11.498;2023-02-22T05:37:15;6.63;;;3.00;;
8353;SDS011;4656;48.090;11.498;2023-02-22T05:39:18;6.53;;;2.80;;
8353;SDS011;4656;48.090;11.498;2023-02-22T05:41:20;3.00;;;2.70;;
8353;SDS011;4656;48.090;11.498;2023-02-22T05:43:22;5.20;;;2.90;;
8353;SDS011;4656;48.090;11.498;2023-02-22T05:45:24;5.05;;;2.80;;
8353;SDS011;4656;48.090;11.498;2023-02-22T05:47:27;4.03;;;2.90;;
8353;SDS011;4656;48.090;11.498;2023-02-22T05:49:29;4.05;;;2.75;;
8353;SDS011;4656;48.090;11.498;2023-02-22T05:51:31;3.75;;;2.72;;
8353;SDS011;4656;48.090;11.498;2023-02-22T05:53:34;4.75;;;2.92;;
8353;SDS011;4656;48.090;11.498;2023-02-22T05:55:37;7.05;;;3.03;;
8353;SDS011;4656;48.090;11.498;2023-02-22T05:57:39;3.97;;;3.17;;
8353;SDS011;4656;48.090;11.498;2023-02-22T05:59:41;5.53;;;3.47;;
8353;SDS011;4656;48.090;11.498;2023-02-22T06:01:43;5.68;;;3.35;;
8353;SDS011;4656;48.090;11.498;2023-02-22T06:03:46;4.85;;;3.35;;
8353;SDS011;4656;48.090;11.498;2023-02-22T06:05:48;4.15;;;3.17;;
8353;SDS011;4656;48.090;11.498;2023-02-22T06:07:50;4.47;;;2.73;;
8353;SDS011;4656;48.090;11.498;2023-02-22T06:09:54;3.47;;;3.08;;
8353;SDS011;4656;48.090;11.498;2023-02-22T06:11:56;5.10;;;3.15;;
8353;SDS011;4656;48.090;11.498;2023-02-22T06:13:58;4.55;;;3.05;;
8353;SDS011;4656;48.090;11.498;2023-02-22T06:16:00;5.90;;;3.10;;
8353;SDS011;4656;48.090;11.498;2023-02-22T06:18:02;5.07;;;3.15;;
8353;SDS011;4656;48.090;11.498;2023-02-22T06:20:05;5.65;;;3.10;;
8353;SDS011;4656;48.090;11.498;2023-02-22T06:22:13;5.00;;;3.35;;
8353;SDS011;4656;48.090;11.498;2023-02-22T06:24:16;6.03;;;3.33;;
8353;SDS011;4656;48.090;11.498;2023-02-22T06:26:20;3.78;;;3.00;;
8353;SDS011;4656;48.090;11.498;2023-02-22T06:28:23;5.88;;;3.00;;
8353;SDS011;4656;48.090;11.498;2023-02-22T06:30:25;5.43;;;3.08;;
8353;SDS011;4656;48.090;11.498;2023-02-22T06:32:28;3.80;;;3.10;;
8353;SDS011;4656;48.090;11.498;2023-02-22T06:34:30;7.10;;;5.03;;
8353;SDS011;4656;48.090;11.498;2023-02-22T06:36:32;5.03;;;3.42;;
8353;SDS011;4656;48.090;11.498;2023-02-22T06:38:34;6.00;;;3.33;;
8353;SDS011;4656;48.090;11.498;2023-02-22T06:40:36;4.53;;;2.90;;
8353;SDS011;4656;48.090;11.498;2023-02-22T06:42:40;4.38;;;3.10;;
8353;SDS011;4656;48.090;11.498;2023-02-22T06:44:42;6.13;;;3.15;;
8353;SDS011;4656;48.090;11.498;2023-02-22T06:46:48;4.10;;;3.00;;
8353;SDS011;4656;48.090;11.498;2023-02-22T06:48:50;7.97;;;3.20;;
8353;SDS011;4656;48.090;11.498;2023-02-22T06:50:52;4.55;;;3.42;;
8353;SDS011;4656;48.090;11.498;2023-02-22T06:52:56;5.20;;;2.95;;
8353;SDS011;4656;48.090;11.498;2023-02-22T06:54:59;6.57;;;3.17;;
8353;SDS011;4656;48.090;11.498;2023-02-22T06:57:01;5.10;;;3.13;;
8353;SDS011;4656;48.090;11.498;2023-02-22T06:59:04;4.07;;;3.00;;
8353;SDS011;4656;48.090;11.498;2023-02-22T07:01:07;4.70;;;3.17;;
8353;SDS011;4656;48.090;11.498;2023-02-22T07:03:09;3.17;;;2.88;;
8353;SDS011;4656;48.090;11.498;2023-02-22T07:05:14;4.10;;;3.05;;
8353;SDS011;4656;48.090;11.498;2023-02-22T07:07:16;6.80;;;3.05;;
8353;SDS011;4656;48.090;11.498;2023-02-22T07:09:19;4.30;;;3.00;;
8353;SDS011;4656;48.090;11.498;2023-02-22T07:11:21;4.47;;;3.10;;
8353;SDS011;4656;48.090;11.498;2023-02-22T07:13:23;5.90;;;3.08;;
8353;SDS011;4656;48.090;11.498;2023-02-22T07:15:27;7.28;;;3.30;;
8353;SDS011;4656;48.090;11.498;2023-02-22T07:17:30;7.80;;;3.35;;
8353;SDS011;4656;48.090;11.498;2023-02-22T07:19:32;11.10;;;3.45;;
8353;SDS011;4656;48.090;11.498;2023-02-22T07:21:34;5.05;;;3.20;;
8353;SDS011;4656;48.090;11.498;2023-02-22T07:23:36;4.20;;;3.20;;
8353;SDS011;4656;48.090;11.498;2023-02-22T07:25:39;7.60;;;3.17;;
8353;SDS011;4656;48.090;11.498;2023-02-22T07:27:41;6.18;;;3.28;;
8353;SDS011;4656;48.090;11.498;2023-02-22T07:29:43;6.35;;;3.45;;
8353;SDS011;4656;48.090;11.498;2023-02-22T07:31:47;6.57;;;3.00;;
8353;SDS011;4656;48.090;11.498;2023-02-22T07:33:50;5.47;;;3.20;;
8353;SDS011;4656;48.090;11.498;2023-02-22T07:35:52;5.63;;;2.90;;
8353;SDS011;4656;48.090;11.498;2023-02-22T07:37:54;5.40;;;2.90;;
8353;SDS011;4656;48.090;11.498;2023-02-22T07:39:56;7.80;;;3.00;;
8353;SDS011;4656;48.090;11.498;2023-02-22T07:41:58;7.15;;;3.22;;
8353;SDS011;4656;48.090;11.498;2023-02-22T07:44:00;5.47;;;2.97;;
8353;SDS011;4656;48.090;11.498;2023-02-22T07:46:03;5.18;;;2.70;;
8353;SDS011;4656;48.090;11.498;2023-02-22T07:48:06;5.72;;;2.70;;
8353;SDS011;4656;48.090;11.498;2023-02-22T07:50:09;10.23;;;3.10;;
8353;SDS011;4656;48.090;11.498;2023-02-22T07:52:11;3.58;;;2.85;;
8353;SDS011;4656;48.090;11.498;2023-02-22T07:54:13;6.18;;;3.00;;
8353;SDS011;4656;48.090;11.498;2023-02-22T07:56:15;4.55;;;2.90;;
8353;SDS011;4656;48.090;11.498;2023-02-22T07:58:18;6.78;;;3.10;;
8353;SDS011;4656;48.090;11.498;2023-02-22T08:00:22;2.85;;;2.22;;
8353;SDS011;4656;48.090;11.498;2023-02-22T08:02:25;4.60;;;2.45;;
8353;SDS011;4656;48.090;11.498;2023-02-22T08:04:29;3.40;;;1.90;;
8353;SDS011;4656;48.090;11.498;2023-02-22T08:06:31;4.68;;;2.50;;
8353;SDS011;4656;48.090;11.498;2023-02-22T08:08:34;4.03;;;2.47;;
8353;SDS011;4656;48.090;11.498;2023-02-22T08:10:36;6.50;;;2.90;;
8353;SDS011;4656;48.090;11.498;2023-02-22T08:12:38;3.60;;;2.47;;
8353;SDS011;4656;48.090;11.498;2023-02-22T08:14:40;3.07;;;2.20;;
8353;SDS011;4656;48.090;11.498;2023-02-22T08:16:42;3.63;;;2.05;;
8353;SDS011;4656;48.090;11.498;2023-02-22T08:18:45;2.28;;;1.83;;
8353;SDS011;4656;48.090;11.498;2023-02-22T08:20:49;3.10;;;2.10;;
8353;SDS011;4656;48.090;11.498;2023-02-22T08:22:52;3.42;;;2.15;;
8353;SDS011;4656;48.090;11.498;2023-02-22T08:24:54;3.65;;;2.00;;
8353;SDS011;4656;48.090;11.498;2023-02-22T08:26:56;3.05;;;1.90;;
8353;SDS011;4656;48.090;11.498;2023-02-22T08:28:58;2.60;;;2.00;;
8353;SDS011;4656;48.090;11.498;2023-02-22T08:31:00;1.77;;;1.67;;
8353;SDS011;4656;48.090;11.498;2023-02-22T08:33:03;2.33;;;1.92;;
8353;SDS011;4656;48.090;11.498;2023-02-22T08:35:05;4.07;;;1.80;;
8353;SDS011;4656;48.090;11.498;2023-02-22T08:37:09;2.88;;;2.05;;
8353;SDS011;4656;48.090;11.498;2023-02-22T08:39:11;2.95;;;1.88;;
8353;SDS011;4656;48.090;11.498;2023-02-22T08:41:13;2.80;;;1.90;;
8353;SDS011;4656;48.090;11.498;2023-02-22T08:43:15;2.78;;;1.80;;
8353;SDS011;4656;48.090;11.498;2023-02-22T08:45:17;2.33;;;1.70;;
8353;SDS011;4656;48.090;11.498;2023-02-22T08:47:20;4.10;;;1.77;;
8353;SDS011;4656;48.090;11.498;2023-02-22T08:49:22;1.80;;;1.60;;
8353;SDS011;4656;48.090;11.498;2023-02-22T08:51:24;2.35;;;1.85;;
8353;SDS011;4656;48.090;11.498;2023-02-22T08:53:28;2.27;;;1.70;;
8353;SDS011;4656;48.090;11.498;2023-02-22T08:55:32;2.42;;;1.58;;
8353;SDS011;4656;48.090;11.498;2023-02-22T08:57:34;1.90;;;1.60;;
8353;SDS011;4656;48.090;11.498;2023-02-22T08:59:37;1.55;;;1.45;;
8353;SDS011;4656;48.090;11.498;2023-02-22T09:01:39;1.80;;;1.50;;
8353;SDS011;4656;48.090;11.498;2023-02-22T09:03:42;1.70;;;1.30;;
8353;SDS011;4656;48.090;11.498;2023-02-22T09:05:44;3.15;;;1.30;;
8353;SDS011;4656;48.090;11.498;2023-02-22T09:07:46;2.80;;;1.60;;
8353;SDS011;4656;48.090;11.498;2023-02-22T09:09:49;1.98;;;1.20;;
8353;SDS011;4656;48.090;11.498;2023-02-22T09:11:52;2.63;;;1.40;;
8353;SDS011;4656;48.090;11.498;2023-02-22T09:13:54;3.05;;;1.30;;
8353;SDS011;4656;48.090;11.498;2023-02-22T09:15:56;2.30;;;1.40;;
8353;SDS011;4656;48.090;11.498;2023-02-22T09:17:58;1.50;;;1.40;;
8353;SDS011;4656;48.090;11.498;2023-02-22T09:20:00;2.72;;;1.50;;
8353;SDS011;4656;48.090;11.498;2023-02-22T09:22:03;3.63;;;1.52;;
8353;SDS011;4656;48.090;11.498;2023-02-22T09:24:05;1.83;;;1.40;;
8353;SDS011;4656;48.090;11.498;2023-02-22T09:26:09;2.22;;;1.40;;
8353;SDS011;4656;48.090;11.498;2023-02-22T09:28:15;3.80;;;1.42;;
8353;SDS011;4656;48.090;11.498;2023-02-22T09:30:19;3.77;;;1.40;;
8353;SDS011;4656;48.090;11.498;2023-02-22T09:32:22;1.80;;;1.42;;
8353;SDS011;4656;48.090;11.498;2023-02-22T09:34:26;2.40;;;1.30;;
8353;SDS011;4656;48.090;11.498;2023-02-22T09:36:29;2.83;;;1.30;;
8353;SDS011;4656;48.090;11.498;2023-02-22T09:38:31;4.95;;;1.65;;
8353;SDS011;4656;48.090;11.498;2023-02-22T09:40:34;1.75;;;1.40;;
8353;SDS011;4656;48.090;11.498;2023-02-22T09:42:46;2.27;;;1.57;;
8353;SDS011;4656;48.090;11.498;2023-02-22T09:44:51;2.45;;;1.10;;
8353;SDS011;4656;48.090;11.498;2023-02-22T09:46:56;1.90;;;1.10;;
8353;SDS011;4656;48.090;11.498;2023-02-22T09:49:01;2.70;;;1.40;;
8353;SDS011;4656;48.090;11.498;2023-02-22T09:51:06;2.67;;;1.40;;
8353;SDS011;4656;48.090;11.498;2023-02-22T09:53:16;1.35;;;1.00;;
8353;SDS011;4656;48.090;11.498;2023-02-22T09:55:30;3.83;;;1.40;;
8353;SDS011;4656;48.090;11.498;2023-02-22T09:57:35;3.20;;;1.40;;
8353;SDS011;4656;48.090;11.498;2023-02-22T09:59:42;1.10;;;1.00;;
8353;SDS011;4656;48.090;11.498;2023-02-22T10:01:47;2.55;;;1.10;;
8353;SDS011;4656;48.090;11.498;2023-02-22T10:03:55;2.50;;;1.10;;
8353;SDS011;4656;48.090;11.498;2023-02-22T10:06:02;2.55;;;1.42;;
8353;SDS011;4656;48.090;11.498;2023-02-22T10:08:08;2.97;;;1.45;;
8353;SDS011;4656;48.090;11.498;2023-02-22T10:10:13;4.65;;;1.40;;
8353;SDS011;4656;48.090;11.498;2023-02-22T10:12:19;1.52;;;1.15;;
8353;SDS011;4656;48.090;11.498;2023-02-22T10:16:44;1.90;;;1.10;;
8353;SDS011;4656;48.090;11.498;2023-02-22T10:18:55;1.83;;;1.43;;
8353;SDS011;4656;48.090;11.498;2023-02-22T10:21:01;2.00;;;1.30;;
8353;SDS011;4656;48.090;11.498;2023-02-22T10:23:08;2.20;;;1.30;;
8353;SDS011;4656;48.090;11.498;2023-02-22T10:25:14;2.13;;;1.10;;
8353;SDS011;4656;48.090;11.498;2023-02-22T10:27:19;3.10;;;1.40;;
8353;SDS011;4656;48.090;11.498;2023-02-22T10:29:24;2.00;;;1.50;;
8353;SDS011;4656;48.090;11.498;2023-02-22T10:31:30;4.57;;;1.30;;
8353;SDS011;4656;48.090;11.498;2023-02-22T10:33:36;3.28;;;1.20;;
8353;SDS011;4656;48.090;11.498;2023-02-22T10:35:39;3.50;;;1.17;;
8353;SDS011;4656;48.090;11.498;2023-02-22T10:37:41;1.17;;;1.08;;
8353;SDS011;4656;48.090;11.498;2023-02-22T10:39:43;2.13;;;1.05;;
8353;SDS011;4656;48.090;11.498;2023-02-22T10:41:47;2.93;;;1.50;;
8353;SDS011;4656;48.090;11.498;2023-02-22T10:43:50;2.50;;;1.10;;
8353;SDS011;4656;48.090;11.498;2023-02-22T10:45:52;0.90;;;0.90;;
8353;SDS011;4656;48.090;11.498;2023-02-22T10:47:56;1.13;;;1.02;;
8353;SDS011;4656;48.090;11.498;2023-02-22T10:50:01;1.70;;;1.13;;
8353;SDS011;4656;48.090;11.498;2023-02-22T10:52:03;1.50;;;1.20;;
8353;SDS011;4656;48.090;11.498;2023-02-22T10:54:20;2.35;;;1.40;;
8353;SDS011;4656;48.090;11.498;2023-02-22T10:56:25;1.73;;;1.15;;
8353;SDS011;4656;48.090;11.498;2023-02-22T10:58:28;2.80;;;1.33;;
8353;SDS011;4656;48.090;11.498;2023-02-22T11:00:31;2.05;;;1.00;;
8353;SDS011;4656;48.090;11.498;2023-02-22T11:02:36;1.45;;;1.10;;
8353;SDS011;4656;48.090;11.498;2023-02-22T11:04:45;1.75;;;1.17;;
8353;SDS011;4656;48.090;11.498;2023-02-22T11:09:12;3.78;;;1.30;;
8353;SDS011;4656;48.090;11.498;2023-02-22T11:11:19;1.33;;;0.98;;
8353;SDS011;4656;48.090;11.498;2023-02-22T11:13:23;1.60;;;1.10;;
8353;SDS011;4656;48.090;11.498;2023-02-22T11:15:26;3.15;;;1.20;;
8353;SDS011;4656;48.090;11.498;2023-02-22T11:17:31;1.55;;;1.20;;
8353;SDS011;4656;48.090;11.498;2023-02-22T11:19:33;1.20;;;1.10;;
8353;SDS011;4656;48.090;11.498;2023-02-22T11:21:37;2.03;;;1.38;;
8353;SDS011;4656;48.090;11.498;2023-02-22T11:23:40;3.63;;;1.15;;
8353;SDS011;4656;48.090;11.498;2023-02-22T11:25:44;2.33;;;1.20;;
8353;SDS011;4656;48.090;11.498;2023-02-22T11:27:47;1.27;;;1.08;;
8353;SDS011;4656;48.090;11.498;2023-02-22T11:29:49;2.58;;;1.42;;
8353;SDS011;4656;48.090;11.498;2023-02-22T11:31:52;1.33;;;0.90;;
8353;SDS011;4656;48.090;11.498;2023-02-22T11:33:56;1.38;;;1.27;;
8353;SDS011;4656;48.090;11.498;2023-02-22T11:35:59;2.13;;;1.15;;
8353;SDS011;4656;48.090;11.498;2023-02-22T11:38:10;2.05;;;1.00;;
8353;SDS011;4656;48.090;11.498;2023-02-22T11:40:16;1.83;;;1.10;;
8353;SDS011;4656;48.090;11.498;2023-02-22T11:42:23;1.38;;;1.10;;
8353;SDS011;4656;48.090;11.498;2023-02-22T11:44:26;3.55;;;1.40;;
8353;SDS011;4656;48.090;11.498;2023-02-22T11:46:30;1.75;;;1.23;;
8353;SDS011;4656;48.090;11.498;2023-02-22T11:48:33;1.80;;;1.38;;
8353;SDS011;4656;48.090;11.498;2023-02-22T11:50:39;2.05;;;1.20;;
8353;SDS011;4656;48.090;11.498;2023-02-22T11:52:45;1.52;;;1.13;;
8353;SDS011;4656;48.090;11.498;2023-02-22T11:54:57;3.30;;;1.10;;
8353;SDS011;4656;48.090;11.498;2023-02-22T11:57:14;1.30;;;1.10;;
8353;SDS011;4656;48.090;11.498;2023-02-22T11:59:25;2.03;;;1.23;;
8353;SDS011;4656;48.090;11.498;2023-02-22T12:01:29;1.60;;;1.00;;
8353;SDS011;4656;48.090;11.498;2023-02-22T12:03:36;1.55;;;1.10;;
8353;SDS011;4656;48.090;11.498;2023-02-22T12:05:43;4.35;;;1.17;;
8353;SDS011;4656;48.090;11.498;2023-02-22T12:08:01;3.85;;;1.40;;
8353;SDS011;4656;48.090;11.498;2023-02-22T12:10:13;2.80;;;1.50;;
8353;SDS011;4656;48.090;11.498;2023-02-22T12:12:18;2.17;;;1.13;;
8353;SDS011;4656;48.090;11.498;2023-02-22T12:14:23;4.60;;;1.38;;
8353;SDS011;4656;48.090;11.498;2023-02-22T12:16:31;4.32;;;1.48;;
8353;SDS011;4656;48.090;11.498;2023-02-22T12:18:38;1.80;;;1.20;;
8353;SDS011;4656;48.090;11.498;2023-02-22T12:20:44;2.08;;;1.38;;
8353;SDS011;4656;48.090;11.498;2023-02-22T12:22:52;3.78;;;1.30;;
8353;SDS011;4656;48.090;11.498;2023-02-22T12:24:56;2.60;;;1.13;;
8353;SDS011;4656;48.090;11.498;2023-02-22T12:27:02;2.10;;;1.30;;
8353;SDS011;4656;48.090;11.498;2023-02-22T12:29:05;2.10;;;1.10;;
8353;SDS011;4656;48.090;11.498;2023-02-22T12:31:13;2.55;;;1.25;;
8353;SDS011;4656;48.090;11.498;2023-02-22T12:33:19;1.75;;;1.20;;
8353;SDS011;4656;48.090;11.498;2023-02-22T12:35:23;1.90;;;0.90;;
8353;SDS011;4656;48.090;11.498;2023-02-22T12:37:27;1.17;;;1.07;;
8353;SDS011;4656;48.090;11.498;2023-02-22T12:39:39;3.50;;;1.25;;
8353;SDS011;4656;48.090;11.498;2023-02-22T12:41:44;2.20;;;1.00;;
8353;SDS011;4656;48.090;11.498;2023-02-22T12:43:48;2.00;;;0.90;;
8353;SDS011;4656;48.090;11.498;2023-02-22T12:45:53;1.58;;;1.00;;
8353;SDS011;4656;48.090;11.498;2023-02-22T12:47:59;2.55;;;1.17;;